createdAt,value
2019-05-18T00:00:36.918Z,1004.5
2019-05-18T00:01:17.528Z,1004.53
2019-05-18T00:01:58.103Z,1004.5
2019-05-18T00:02:38.670Z,1004.47
2019-05-18T00:03:19.240Z,1004.5
2019-05-18T00:03:59.786Z,1004.5
2019-05-18T00:04:40.371Z,1004.47
2019-05-18T00:05:20.935Z,1004.46
2019-05-18T00:06:01.505Z,1004.44
2019-05-18T00:06:42.074Z,1004.39
2019-05-18T00:07:22.640Z,1004.4
2019-05-18T00:08:03.226Z,1004.4
2019-05-18T00:08:43.792Z,1004.42
2019-05-18T00:09:24.403Z,1004.42
2019-05-18T00:10:05.025Z,1004.39
2019-05-18T00:10:45.604Z,1004.38
2019-05-18T00:11:26.252Z,1004.39
2019-05-18T00:12:06.835Z,1004.39
2019-05-18T00:12:47.387Z,1004.38
2019-05-18T00:13:28.001Z,1004.41
2019-05-18T00:14:08.594Z,1004.4
2019-05-18T00:14:49.192Z,1004.39
2019-05-18T00:15:29.717Z,1004.37
2019-05-18T00:16:10.285Z,1004.42
2019-05-18T00:16:50.897Z,1004.37
2019-05-18T00:17:31.477Z,1004.36
2019-05-18T00:18:12.060Z,1004.41
2019-05-18T00:18:52.632Z,1004.37
2019-05-18T00:19:33.222Z,1004.38
2019-05-18T00:20:13.821Z,1004.33
2019-05-18T00:20:54.418Z,1004.38
2019-05-18T00:21:35.278Z,1004.39
2019-05-18T00:22:15.876Z,1004.39
2019-05-18T00:22:56.454Z,1004.4
2019-05-18T00:23:37.050Z,1004.35
2019-05-18T00:24:17.621Z,1004.42
2019-05-18T00:24:58.185Z,1004.37
2019-05-18T00:25:38.761Z,1004.41
2019-05-18T00:26:19.330Z,1004.42
2019-05-18T00:26:59.935Z,1004.43
2019-05-18T00:27:40.514Z,1004.38
2019-05-18T00:28:21.143Z,1004.39
2019-05-18T00:29:01.714Z,1004.38
2019-05-18T00:29:42.296Z,1004.4
2019-05-18T00:30:22.896Z,1004.39
2019-05-18T00:31:03.460Z,1004.45
2019-05-18T00:31:44.045Z,1004.42
2019-05-18T00:32:24.632Z,1004.43
2019-05-18T00:33:05.210Z,1004.47
2019-05-18T00:33:45.789Z,1004.46
2019-05-18T00:34:26.359Z,1004.46
2019-05-18T00:35:06.933Z,1004.47
2019-05-18T00:35:47.571Z,1004.49
2019-05-18T00:36:28.118Z,1004.45
2019-05-18T00:37:08.691Z,1004.45
2019-05-18T00:37:49.248Z,1004.42
2019-05-18T00:38:29.858Z,1004.45
2019-05-18T00:39:10.409Z,1004.43
2019-05-18T00:39:50.987Z,1004.41
2019-05-18T00:40:31.535Z,1004.41
2019-05-18T00:41:12.094Z,1004.42
2019-05-18T00:41:52.648Z,1004.42
2019-05-18T00:42:33.219Z,1004.38
2019-05-18T00:43:13.902Z,1004.42
2019-05-18T00:43:54.467Z,1004.42
2019-05-18T00:44:35.047Z,1004.41
2019-05-18T00:45:15.636Z,1004.39
2019-05-18T00:45:56.210Z,1004.37
2019-05-18T00:46:36.775Z,1004.39
2019-05-18T00:47:17.365Z,1004.37
2019-05-18T00:47:57.966Z,1004.38
2019-05-18T00:48:38.533Z,1004.37
2019-05-18T00:49:19.084Z,1004.35
2019-05-18T00:49:59.640Z,1004.36
2019-05-18T00:50:40.190Z,1004.38
2019-05-18T00:51:23.267Z,1004.35
2019-05-18T00:52:01.313Z,1004.36
2019-05-18T00:52:41.896Z,1004.36
2019-05-18T00:53:22.437Z,1004.36
2019-05-18T00:54:03.023Z,1004.4
2019-05-18T00:54:43.587Z,1004.45
2019-05-18T00:55:24.147Z,1004.41
2019-05-18T00:56:04.715Z,1004.45
2019-05-18T00:56:45.308Z,1004.4
2019-05-18T00:57:25.881Z,1004.44
2019-05-18T00:58:06.446Z,1004.39
2019-05-18T00:58:47.037Z,1004.35
2019-05-18T00:59:27.602Z,1004.35
2019-05-18T01:00:08.198Z,1004.35
2019-05-18T01:00:48.772Z,1004.33
2019-05-18T01:01:29.344Z,1004.36
2019-05-18T01:02:09.908Z,1004.36
2019-05-18T01:02:50.463Z,1004.33
2019-05-18T01:03:31.043Z,1004.36
2019-05-18T01:04:11.618Z,1004.37
2019-05-18T01:04:52.188Z,1004.36
2019-05-18T01:05:32.794Z,1004.37
2019-05-18T01:06:13.392Z,1004.37
2019-05-18T01:06:53.960Z,1004.36
2019-05-18T01:07:34.514Z,1004.34
2019-05-18T01:08:15.100Z,1004.33
2019-05-18T01:08:55.685Z,1004.35
2019-05-18T01:09:36.258Z,1004.38
2019-05-18T01:10:16.866Z,1004.37
2019-05-18T01:10:57.440Z,1004.41
2019-05-18T01:11:38.035Z,1004.38
2019-05-18T01:12:18.671Z,1004.39
2019-05-18T01:12:59.363Z,1004.44
2019-05-18T01:13:39.865Z,1004.44
2019-05-18T01:14:20.451Z,1004.42
2019-05-18T01:15:01.025Z,1004.37
2019-05-18T01:15:41.605Z,1004.37
2019-05-18T01:16:22.194Z,1004.39
2019-05-18T01:17:02.765Z,1004.41
2019-05-18T01:17:56.341Z,1004.38
2019-05-18T01:18:23.930Z,1004.38
2019-05-18T01:19:04.477Z,1004.42
2019-05-18T01:19:45.028Z,1004.41
2019-05-18T01:20:25.602Z,1004.43
2019-05-18T01:21:06.201Z,1004.38
2019-05-18T01:21:46.765Z,1004.39
2019-05-18T01:22:27.357Z,1004.34
2019-05-18T01:23:07.961Z,1004.35
2019-05-18T01:23:48.509Z,1004.37
2019-05-18T01:24:29.076Z,1004.3
2019-05-18T01:25:09.658Z,1004.34
2019-05-18T01:25:50.213Z,1004.34
2019-05-18T01:26:30.774Z,1004.34
2019-05-18T01:27:11.345Z,1004.31
2019-05-18T01:27:51.895Z,1004.34
2019-05-18T01:28:32.446Z,1004.3
2019-05-18T01:31:31.241Z,1004.27
2019-05-18T01:32:11.811Z,1004.3
2019-05-18T01:32:52.355Z,1004.25
2019-05-18T01:33:32.940Z,1004.33
2019-05-18T01:34:13.514Z,1004.28
2019-05-18T01:34:54.128Z,1004.33
2019-05-18T01:35:34.702Z,1004.3
2019-05-18T01:36:15.251Z,1004.31
2019-05-18T01:38:28.131Z,1004.31
2019-05-18T01:39:08.744Z,1004.31
2019-05-18T01:39:49.322Z,1004.34
2019-05-18T01:40:29.961Z,1004.35
2019-05-18T01:41:10.643Z,1004.39
2019-05-18T01:41:51.299Z,1004.36
2019-05-18T01:42:31.842Z,1004.37
2019-05-18T01:43:12.440Z,1004.35
2019-05-18T01:43:53.012Z,1004.4
2019-05-18T01:44:33.623Z,1004.41
2019-05-18T01:45:17.117Z,1004.41
2019-05-18T01:45:54.875Z,1004.39
2019-05-18T01:46:35.399Z,1004.42
2019-05-18T01:47:16.191Z,1004.43
2019-05-18T01:48:11.120Z,1004.42
2019-05-18T01:48:37.403Z,1004.43
2019-05-18T01:49:17.970Z,1004.45
2019-05-18T01:49:58.523Z,1004.45
2019-05-18T01:50:39.177Z,1004.43
2019-05-18T01:51:19.772Z,1004.41
2019-05-18T01:52:00.374Z,1004.4
2019-05-18T01:52:40.953Z,1004.41
2019-05-18T01:53:21.569Z,1004.41
2019-05-18T01:54:02.136Z,1004.42
2019-05-18T01:54:42.743Z,1004.43
2019-05-18T01:55:23.373Z,1004.42
2019-05-18T01:56:03.969Z,1004.39
2019-05-18T01:56:44.573Z,1004.4
2019-05-18T01:57:25.239Z,1004.37
2019-05-18T01:58:05.814Z,1004.38
2019-05-18T01:58:46.425Z,1004.37
2019-05-18T01:59:27.059Z,1004.38
2019-05-18T02:00:07.610Z,1004.37
2019-05-18T02:00:48.258Z,1004.35
2019-05-18T02:01:28.899Z,1004.36
2019-05-18T02:02:09.540Z,1004.37
2019-05-18T02:02:50.159Z,1004.36
2019-05-18T02:03:30.830Z,1004.38
2019-05-18T02:04:11.408Z,1004.39
2019-05-18T02:04:52.064Z,1004.41
2019-05-18T02:05:32.663Z,1004.37
2019-05-18T02:06:13.416Z,1004.36
2019-05-18T02:06:53.824Z,1004.35
2019-05-18T02:07:34.468Z,1004.38
2019-05-18T02:08:15.134Z,1004.38
2019-05-18T02:08:55.902Z,1004.37
2019-05-18T02:09:36.496Z,1004.37
2019-05-18T02:10:17.067Z,1004.4
2019-05-18T02:10:57.764Z,1004.38
2019-05-18T02:11:38.334Z,1004.37
2019-05-18T02:12:18.973Z,1004.36
2019-05-18T02:12:59.593Z,1004.35
2019-05-18T02:13:40.244Z,1004.35
2019-05-18T02:14:20.902Z,1004.35
2019-05-18T02:15:01.610Z,1004.36
2019-05-18T02:15:42.149Z,1004.38
2019-05-18T02:16:22.766Z,1004.39
2019-05-18T02:17:03.397Z,1004.38
2019-05-18T02:17:43.994Z,1004.35
2019-05-18T02:18:28.922Z,1004.36
2019-05-18T02:19:05.349Z,1004.35
2019-05-18T02:19:45.975Z,1004.37
2019-05-18T02:20:26.544Z,1004.37
2019-05-18T02:21:07.130Z,1004.4
2019-05-18T02:21:47.735Z,1004.38
2019-05-18T02:22:28.301Z,1004.41
2019-05-18T02:23:08.881Z,1004.43
2019-05-18T02:23:49.453Z,1004.42
2019-05-18T02:24:30.098Z,1004.43
2019-05-18T02:25:10.726Z,1004.43
2019-05-18T02:25:51.268Z,1004.43
2019-05-18T02:26:31.924Z,1004.45
2019-05-18T02:27:12.648Z,1004.4
2019-05-18T02:27:53.250Z,1004.45
2019-05-18T02:28:33.851Z,1004.46
2019-05-18T02:29:14.460Z,1004.46
2019-05-18T02:29:55.112Z,1004.46
2019-05-18T02:30:35.704Z,1004.47
2019-05-18T02:31:16.317Z,1004.43
2019-05-18T02:31:56.867Z,1004.38
2019-05-18T02:32:37.461Z,1004.4
2019-05-18T02:33:18.074Z,1004.39
2019-05-18T02:33:58.658Z,1004.41
2019-05-18T02:34:39.316Z,1004.41
2019-05-18T02:35:19.902Z,1004.42
2019-05-18T02:36:00.473Z,1004.4
2019-05-18T02:36:41.087Z,1004.43
2019-05-18T02:37:21.867Z,1004.41
2019-05-18T02:38:02.506Z,1004.43
2019-05-18T02:38:43.076Z,1004.43
2019-05-18T02:39:23.651Z,1004.43
2019-05-18T02:42:22.482Z,1004.4
2019-05-18T02:43:03.078Z,1004.37
2019-05-18T02:43:43.666Z,1004.35
2019-05-18T02:44:24.251Z,1004.31
2019-05-18T02:45:04.849Z,1004.32
2019-05-18T02:45:45.483Z,1004.34
2019-05-18T02:46:26.055Z,1004.3
2019-05-18T02:47:06.625Z,1004.28
2019-05-18T02:47:47.230Z,1004.32
2019-05-18T02:48:48.238Z,1004.26
2019-05-18T02:49:15.037Z,1004.24
2019-05-18T02:49:55.670Z,1004.24
2019-05-18T02:50:36.230Z,1004.25
2019-05-18T02:51:16.856Z,1004.28
2019-05-18T02:51:57.388Z,1004.25
2019-05-18T02:52:38.046Z,1004.24
2019-05-18T02:53:18.642Z,1004.22
2019-05-18T02:53:59.252Z,1004.23
2019-05-18T02:54:39.914Z,1004.23
2019-05-18T02:55:20.571Z,1004.2
2019-05-18T02:56:01.191Z,1004.25
2019-05-18T02:56:41.765Z,1004.21
2019-05-18T02:57:22.484Z,1004.22
2019-05-18T02:58:03.056Z,1004.21
2019-05-18T02:58:43.639Z,1004.18
2019-05-18T02:59:24.218Z,1004.23
2019-05-18T03:00:04.826Z,1004.24
2019-05-18T03:00:45.502Z,1004.23
2019-05-18T03:01:26.035Z,1004.2
2019-05-18T03:02:06.637Z,1004.24
2019-05-18T03:02:47.216Z,1004.28
2019-05-18T03:03:27.825Z,1004.25
2019-05-18T03:04:08.434Z,1004.27
2019-05-18T03:04:49.076Z,1004.28
2019-05-18T03:05:29.717Z,1004.3
2019-05-18T03:06:10.385Z,1004.28
2019-05-18T03:06:50.911Z,1004.26
2019-05-18T03:07:31.600Z,1004.28
2019-05-18T03:08:12.157Z,1004.35
2019-05-18T03:08:52.826Z,1004.26
2019-05-18T03:09:33.460Z,1004.32
2019-05-18T03:10:14.187Z,1004.27
2019-05-18T03:10:54.768Z,1004.3
2019-05-18T03:11:35.350Z,1004.33
2019-05-18T03:12:15.929Z,1004.31
2019-05-18T03:12:56.512Z,1004.29
2019-05-18T03:13:37.131Z,1004.32
2019-05-18T03:14:17.673Z,1004.31
2019-05-18T03:14:58.284Z,1004.27
2019-05-18T03:15:38.902Z,1004.28
2019-05-18T03:16:19.481Z,1004.3
2019-05-18T03:17:00.067Z,1004.32
2019-05-18T03:17:40.682Z,1004.29
2019-05-18T03:18:21.294Z,1004.34
2019-05-18T03:19:07.904Z,1004.34
2019-05-18T03:19:42.530Z,1004.39
2019-05-18T03:20:23.127Z,1004.37
2019-05-18T03:21:03.794Z,1004.37
2019-05-18T03:21:44.585Z,1004.36
2019-05-18T03:22:25.172Z,1004.37
2019-05-18T03:23:05.747Z,1004.35
2019-05-18T03:23:46.349Z,1004.35
2019-05-18T03:24:26.883Z,1004.35
2019-05-18T03:25:07.465Z,1004.37
2019-05-18T03:25:48.084Z,1004.34
2019-05-18T03:26:28.709Z,1004.38
2019-05-18T03:27:09.324Z,1004.36
2019-05-18T03:27:49.924Z,1004.38
2019-05-18T03:28:30.512Z,1004.4
2019-05-18T03:29:11.193Z,1004.36
2019-05-18T03:29:51.821Z,1004.39
2019-05-18T03:30:32.509Z,1004.43
2019-05-18T03:31:13.133Z,1004.4
2019-05-18T03:31:53.693Z,1004.41
2019-05-18T03:32:34.306Z,1004.37
2019-05-18T03:33:14.908Z,1004.39
2019-05-18T03:33:55.547Z,1004.36
2019-05-18T03:34:36.175Z,1004.39
2019-05-18T03:35:16.797Z,1004.35
2019-05-18T03:35:57.322Z,1004.37
2019-05-18T03:36:37.914Z,1004.37
2019-05-18T03:37:18.460Z,1004.33
2019-05-18T03:37:59.044Z,1004.35
2019-05-18T03:38:39.683Z,1004.34
2019-05-18T03:39:20.340Z,1004.31
2019-05-18T03:40:00.903Z,1004.35
2019-05-18T03:40:41.486Z,1004.33
2019-05-18T03:41:22.107Z,1004.34
2019-05-18T03:42:02.721Z,1004.33
2019-05-18T03:42:43.332Z,1004.36
2019-05-18T03:43:23.899Z,1004.34
2019-05-18T03:44:04.536Z,1004.35
2019-05-18T03:44:45.289Z,1004.34
2019-05-18T03:45:25.865Z,1004.35
2019-05-18T03:46:06.558Z,1004.32
2019-05-18T03:46:47.172Z,1004.32
2019-05-18T03:47:27.747Z,1004.34
2019-05-18T03:48:08.323Z,1004.35
2019-05-18T03:48:48.905Z,1004.34
2019-05-18T03:49:29.533Z,1004.38
2019-05-18T03:50:10.153Z,1004.36
2019-05-18T03:50:50.745Z,1004.41
2019-05-18T03:51:31.324Z,1004.37
2019-05-18T03:52:11.916Z,1004.39
2019-05-18T03:52:52.472Z,1004.35
2019-05-18T03:53:33.076Z,1004.35
2019-05-18T03:54:13.734Z,1004.32
2019-05-18T03:54:54.303Z,1004.34
2019-05-18T03:55:34.938Z,1004.33
2019-05-18T03:56:15.564Z,1004.35
2019-05-18T03:56:56.232Z,1004.31
2019-05-18T03:57:36.730Z,1004.35
2019-05-18T03:58:17.287Z,1004.34
2019-05-18T03:58:57.894Z,1004.34
2019-05-18T03:59:38.487Z,1004.3
2019-05-18T04:00:19.072Z,1004.27
2019-05-18T04:00:59.640Z,1004.25
2019-05-18T04:01:40.267Z,1004.28
2019-05-18T04:02:20.810Z,1004.27
2019-05-18T04:03:01.382Z,1004.31
2019-05-18T04:03:41.974Z,1004.36
2019-05-18T04:04:22.567Z,1004.33
2019-05-18T04:05:03.217Z,1004.34
2019-05-18T04:05:43.804Z,1004.35
2019-05-18T04:06:24.430Z,1004.33
2019-05-18T04:07:05.031Z,1004.29
2019-05-18T04:07:45.654Z,1004.28
2019-05-18T04:08:26.198Z,1004.31
2019-05-18T04:09:06.767Z,1004.22
2019-05-18T04:09:47.354Z,1004.23
2019-05-18T04:10:27.973Z,1004.27
2019-05-18T04:11:08.557Z,1004.26
2019-05-18T04:11:49.140Z,1004.18
2019-05-18T04:12:29.739Z,1004.24
2019-05-18T04:13:10.298Z,1004.21
2019-05-18T04:13:50.895Z,1004.24
2019-05-18T04:14:31.426Z,1004.25
2019-05-18T04:15:12.117Z,1004.25
2019-05-18T04:15:52.681Z,1004.25
2019-05-18T04:16:33.267Z,1004.23
2019-05-18T04:17:13.848Z,1004.27
2019-05-18T04:17:54.428Z,1004.21
2019-05-18T04:18:34.998Z,1004.21
2019-05-18T04:19:15.572Z,1004.21
2019-05-18T04:19:56.142Z,1004.21
2019-05-18T04:20:36.766Z,1004.21
2019-05-18T04:21:17.384Z,1004.23
2019-05-18T04:21:58.025Z,1004.23
2019-05-18T04:22:38.606Z,1004.2
2019-05-18T04:23:19.168Z,1004.26
2019-05-18T04:23:59.755Z,1004.22
2019-05-18T04:24:40.317Z,1004.22
2019-05-18T04:25:20.890Z,1004.21
2019-05-18T04:26:01.452Z,1004.21
2019-05-18T04:26:42.048Z,1004.2
2019-05-18T04:27:22.617Z,1004.22
2019-05-18T04:28:03.210Z,1004.21
2019-05-18T04:28:43.791Z,1004.22
2019-05-18T04:29:24.420Z,1004.19
2019-05-18T04:30:04.999Z,1004.23
2019-05-18T04:30:45.596Z,1004.2
2019-05-18T04:31:26.142Z,1004.19
2019-05-18T04:32:06.709Z,1004.21
2019-05-18T04:32:47.266Z,1004.22
2019-05-18T04:33:27.843Z,1004.18
2019-05-18T04:34:08.471Z,1004.19
2019-05-18T04:34:49.041Z,1004.21
2019-05-18T04:35:29.644Z,1004.16
2019-05-18T04:36:10.251Z,1004.13
2019-05-18T04:36:50.887Z,1004.18
2019-05-18T04:37:31.428Z,1004.19
2019-05-18T04:38:12.138Z,1004.15
2019-05-18T04:38:52.608Z,1004.2
2019-05-18T04:39:33.218Z,1004.22
2019-05-18T04:40:13.827Z,1004.22
2019-05-18T04:40:54.484Z,1004.25
2019-05-18T04:41:35.082Z,1004.26
2019-05-18T04:42:15.629Z,1004.19
2019-05-18T04:42:56.201Z,1004.2
2019-05-18T04:43:36.776Z,1004.23
2019-05-18T04:44:17.449Z,1004.22
2019-05-18T04:44:57.988Z,1004.23
2019-05-18T04:45:38.631Z,1004.28
2019-05-18T04:46:19.259Z,1004.28
2019-05-18T04:46:59.844Z,1004.28
2019-05-18T04:47:40.447Z,1004.22
2019-05-18T04:48:21.007Z,1004.2
2019-05-18T04:49:01.618Z,1004.21
2019-05-18T04:49:42.174Z,1004.2
2019-05-18T04:50:22.742Z,1004.22
2019-05-18T04:51:03.378Z,1004.22
2019-05-18T04:51:43.949Z,1004.21
2019-05-18T04:52:24.529Z,1004.24
2019-05-18T04:53:05.120Z,1004.21
2019-05-18T04:53:45.680Z,1004.22
2019-05-18T04:54:26.277Z,1004.23
2019-05-18T04:55:06.832Z,1004.23
2019-05-18T04:55:47.420Z,1004.23
2019-05-18T04:56:28.191Z,1004.22
2019-05-18T04:57:08.870Z,1004.21
2019-05-18T04:57:49.449Z,1004.2
2019-05-18T04:58:30.065Z,1004.24
2019-05-18T04:59:10.712Z,1004.23
2019-05-18T04:59:51.284Z,1004.23
2019-05-18T05:00:31.859Z,1004.25
2019-05-18T05:01:12.461Z,1004.24
2019-05-18T05:01:53.073Z,1004.22
2019-05-18T05:02:33.658Z,1004.22
2019-05-18T05:03:14.244Z,1004.22
2019-05-18T05:03:54.844Z,1004.23
2019-05-18T05:04:35.449Z,1004.2
2019-05-18T05:05:16.033Z,1004.25
2019-05-18T05:05:56.603Z,1004.23
2019-05-18T05:06:37.239Z,1004.22
2019-05-18T05:07:17.894Z,1004.22
2019-05-18T05:07:58.565Z,1004.2
2019-05-18T05:08:39.146Z,1004.19
2019-05-18T05:09:19.766Z,1004.19
2019-05-18T05:10:00.352Z,1004.19
2019-05-18T05:10:40.960Z,1004.18
2019-05-18T05:11:21.534Z,1004.2
2019-05-18T05:12:02.172Z,1004.24
2019-05-18T05:12:42.742Z,1004.23
2019-05-18T05:13:23.429Z,1004.19
2019-05-18T05:14:03.988Z,1004.2
2019-05-18T05:14:44.775Z,1004.24
2019-05-18T05:15:25.471Z,1004.21
2019-05-18T05:16:06.083Z,1004.25
2019-05-18T05:19:20.059Z,1004.16
2019-05-18T05:20:00.644Z,1004.19
2019-05-18T05:20:41.235Z,1004.16
2019-05-18T05:21:21.817Z,1004.15
2019-05-18T05:22:02.387Z,1004.21
2019-05-18T05:22:42.989Z,1004.19
2019-05-18T05:23:23.798Z,1004.18
2019-05-18T05:24:04.399Z,1004.19
2019-05-18T05:24:45.007Z,1004.18
2019-05-18T05:25:25.605Z,1004.15
2019-05-18T05:26:06.240Z,1004.16
2019-05-18T05:26:46.815Z,1004.18
2019-05-18T05:27:27.411Z,1004.16
2019-05-18T05:28:07.980Z,1004.14
2019-05-18T05:28:48.571Z,1004.14
2019-05-18T05:29:29.164Z,1004.11
2019-05-18T05:30:09.791Z,1004.15
2019-05-18T05:30:50.575Z,1004.21
2019-05-18T05:31:31.159Z,1004.19
2019-05-18T05:32:11.746Z,1004.23
2019-05-18T05:32:52.302Z,1004.28
2019-05-18T05:33:32.873Z,1004.39
2019-05-18T05:34:13.495Z,1004.45
2019-05-18T05:34:54.079Z,1004.52
2019-05-18T05:35:37.542Z,1004.57
2019-05-18T05:36:15.296Z,1004.58
2019-05-18T05:36:55.839Z,1004.6
2019-05-18T05:37:36.387Z,1004.61
2019-05-18T05:38:16.960Z,1004.66
2019-05-18T05:38:57.540Z,1004.67
2019-05-18T05:39:38.123Z,1004.65
2019-05-18T05:40:18.702Z,1004.67
2019-05-18T05:40:59.300Z,1004.74
2019-05-18T05:41:39.897Z,1004.71
2019-05-18T05:42:20.474Z,1004.76
2019-05-18T05:43:01.102Z,1004.79
2019-05-18T05:43:41.677Z,1004.84
2019-05-18T05:44:22.262Z,1004.88
2019-05-18T05:45:02.831Z,1004.88
2019-05-18T05:45:43.528Z,1004.92
2019-05-18T05:46:24.135Z,1004.89
2019-05-18T05:47:04.708Z,1004.91
2019-05-18T05:47:45.278Z,1004.9
2019-05-18T05:48:25.965Z,1004.96
2019-05-18T05:49:06.525Z,1005.01
2019-05-18T05:49:47.295Z,1004.99
2019-05-18T05:50:35.670Z,1005.04
2019-05-18T05:51:08.518Z,1005.12
2019-05-18T05:51:49.138Z,1005.12
2019-05-18T05:52:29.729Z,1005.1
2019-05-18T05:53:10.374Z,1005.15
2019-05-18T05:53:50.965Z,1005.16
2019-05-18T05:54:31.582Z,1005.3
2019-05-18T05:55:12.253Z,1005.33
2019-05-18T05:55:52.865Z,1005.33
2019-05-18T05:56:33.463Z,1005.41
2019-05-18T05:57:13.998Z,1005.49
2019-05-18T05:57:54.587Z,1005.52
2019-05-18T05:58:35.165Z,1005.62
2019-05-18T05:59:15.731Z,1005.65
2019-05-18T05:59:56.365Z,1005.79
2019-05-18T06:00:37.131Z,1005.89
2019-05-18T06:01:17.761Z,1005.93
2019-05-18T06:01:58.341Z,1005.89
2019-05-18T06:02:38.991Z,1005.93
2019-05-18T06:03:19.563Z,1005.9
2019-05-18T06:04:00.126Z,1005.97
2019-05-18T06:04:40.718Z,1005.97
2019-05-18T06:05:21.315Z,1005.98
2019-05-18T06:06:01.915Z,1005.95
2019-05-18T06:06:42.464Z,1005.93
2019-05-18T06:07:23.047Z,1005.97
2019-05-18T06:08:03.597Z,1006.01
2019-05-18T06:08:44.183Z,1005.9
2019-05-18T06:09:24.759Z,1005.81
2019-05-18T06:10:05.357Z,1005.71
2019-05-18T06:10:45.975Z,1005.68
2019-05-18T06:11:26.545Z,1005.53
2019-05-18T06:12:07.138Z,1005.34
2019-05-18T06:12:47.715Z,1005.08
2019-05-18T06:13:28.325Z,1004.92
2019-05-18T06:14:08.915Z,1004.81
2019-05-18T06:14:49.495Z,1004.79
2019-05-18T06:15:30.094Z,1004.77
2019-05-18T06:16:10.694Z,1004.79
2019-05-18T06:16:51.308Z,1004.81
2019-05-18T06:17:31.871Z,1004.82
2019-05-18T06:18:12.506Z,1004.81
2019-05-18T06:18:53.083Z,1004.85
2019-05-18T06:19:33.660Z,1004.87
2019-05-18T06:20:14.263Z,1004.89
2019-05-18T06:20:54.940Z,1004.93
2019-05-18T06:21:35.769Z,1005
2019-05-18T06:22:16.365Z,1005.1
2019-05-18T06:22:56.965Z,1005.08
2019-05-18T06:23:37.546Z,1005.07
2019-05-18T06:24:18.185Z,1005.09
2019-05-18T06:24:58.850Z,1005.07
2019-05-18T06:25:39.472Z,1005.05
2019-05-18T06:26:20.047Z,1004.97
2019-05-18T06:27:00.614Z,1004.99
2019-05-18T06:27:41.292Z,1004.98
2019-05-18T06:28:21.806Z,1004.95
2019-05-18T06:29:02.418Z,1004.94
2019-05-18T06:29:43.021Z,1004.99
2019-05-18T06:30:23.723Z,1004.96
2019-05-18T06:31:04.344Z,1004.89
2019-05-18T06:31:44.947Z,1004.9
2019-05-18T06:32:25.518Z,1004.88
2019-05-18T06:33:06.095Z,1004.92
2019-05-18T06:33:46.654Z,1004.88
2019-05-18T06:34:27.257Z,1004.85
2019-05-18T06:35:07.823Z,1004.85
2019-05-18T06:35:48.413Z,1004.83
2019-05-18T06:36:29.004Z,1004.84
2019-05-18T06:37:09.589Z,1004.78
2019-05-18T06:37:50.144Z,1004.76
2019-05-18T06:38:30.702Z,1004.77
2019-05-18T06:39:11.311Z,1004.78
2019-05-18T06:39:51.929Z,1004.79
2019-05-18T06:40:32.541Z,1004.77
2019-05-18T06:41:13.106Z,1004.79
2019-05-18T06:41:53.687Z,1004.81
2019-05-18T06:42:34.275Z,1004.76
2019-05-18T06:43:14.934Z,1004.72
2019-05-18T06:43:58.252Z,1004.76
2019-05-18T06:44:36.072Z,1004.76
2019-05-18T06:45:16.641Z,1004.75
2019-05-18T06:45:57.348Z,1004.81
2019-05-18T06:46:37.987Z,1004.77
2019-05-18T06:47:18.551Z,1004.76
2019-05-18T06:47:59.228Z,1004.73
2019-05-18T06:48:39.786Z,1004.74
2019-05-18T06:49:20.403Z,1004.74
2019-05-18T06:50:00.940Z,1004.75
2019-05-18T06:50:41.524Z,1004.74
2019-05-18T06:51:22.102Z,1004.75
2019-05-18T06:52:02.832Z,1004.7
2019-05-18T06:52:43.822Z,1004.74
2019-05-18T06:53:25.176Z,1004.69
2019-05-18T06:54:06.533Z,1004.71
2019-05-18T06:54:47.100Z,1004.7
2019-05-18T06:55:27.766Z,1004.7
2019-05-18T06:56:08.380Z,1004.69
2019-05-18T06:56:48.940Z,1004.69
2019-05-18T06:57:29.512Z,1004.68
2019-05-18T06:58:10.098Z,1004.69
2019-05-18T06:58:50.701Z,1004.73
2019-05-18T06:59:31.440Z,1004.75
2019-05-18T07:00:11.945Z,1004.73
2019-05-18T07:00:52.557Z,1004.7
2019-05-18T07:01:33.129Z,1004.71
2019-05-18T07:02:13.763Z,1004.7
2019-05-18T07:02:54.361Z,1004.7
2019-05-18T07:03:35.014Z,1004.69
2019-05-18T07:04:15.647Z,1004.71
2019-05-18T07:04:56.289Z,1004.71
2019-05-18T07:05:37.252Z,1004.7
2019-05-18T07:06:17.803Z,1004.67
2019-05-18T07:06:58.521Z,1004.69
2019-05-18T07:07:39.080Z,1004.73
2019-05-18T07:08:19.645Z,1004.73
2019-05-18T07:09:00.209Z,1004.76
2019-05-18T07:09:40.820Z,1004.76
2019-05-18T07:10:21.402Z,1004.74
2019-05-18T07:11:02.024Z,1004.74
2019-05-18T07:11:42.779Z,1004.76
2019-05-18T07:12:23.366Z,1004.69
2019-05-18T07:13:03.950Z,1004.7
2019-05-18T07:13:44.536Z,1004.66
2019-05-18T07:14:26.087Z,1004.67
2019-05-18T07:15:05.737Z,1004.73
2019-05-18T07:15:46.302Z,1004.72
2019-05-18T07:16:26.879Z,1004.76
2019-05-18T07:17:07.478Z,1004.72
2019-05-18T07:17:48.050Z,1004.69
2019-05-18T07:18:28.677Z,1004.69
2019-05-18T07:19:09.249Z,1004.67
2019-05-18T07:19:49.865Z,1004.69
2019-05-18T07:20:30.488Z,1004.66
2019-05-18T07:21:21.672Z,1004.7
2019-05-18T07:21:51.889Z,1004.68
2019-05-18T07:22:32.706Z,1004.72
2019-05-18T07:23:13.369Z,1004.71
2019-05-18T07:23:53.952Z,1004.67
2019-05-18T07:24:34.564Z,1004.69
2019-05-18T07:25:15.172Z,1004.64
2019-05-18T07:25:55.751Z,1004.67
2019-05-18T07:26:36.365Z,1004.65
2019-05-18T07:27:16.996Z,1004.63
2019-05-18T07:27:57.578Z,1004.61
2019-05-18T07:28:38.258Z,1004.61
2019-05-18T07:29:18.907Z,1004.64
2019-05-18T07:29:59.624Z,1004.59
2019-05-18T07:30:40.142Z,1004.61
2019-05-18T07:31:20.727Z,1004.64
2019-05-18T07:32:01.435Z,1004.58
2019-05-18T07:32:42.132Z,1004.6
2019-05-18T07:33:22.752Z,1004.63
2019-05-18T07:34:03.336Z,1004.59
2019-05-18T07:34:43.963Z,1004.61
2019-05-18T07:35:24.586Z,1004.6
2019-05-18T07:36:05.193Z,1004.62
2019-05-18T07:36:45.820Z,1004.63
2019-05-18T07:37:26.396Z,1004.58
2019-05-18T07:38:07.022Z,1004.56
2019-05-18T07:38:47.581Z,1004.54
2019-05-18T07:39:28.202Z,1004.55
2019-05-18T07:40:08.857Z,1004.56
2019-05-18T07:40:49.524Z,1004.57
2019-05-18T07:41:30.103Z,1004.57
2019-05-18T07:42:10.739Z,1004.56
2019-05-18T07:42:51.332Z,1004.57
2019-05-18T07:43:31.939Z,1004.58
2019-05-18T07:44:12.557Z,1004.53
2019-05-18T07:44:53.251Z,1004.56
2019-05-18T07:45:33.911Z,1004.59
2019-05-18T07:46:14.499Z,1004.52
2019-05-18T07:46:55.173Z,1004.53
2019-05-18T07:47:35.772Z,1004.51
2019-05-18T07:48:16.417Z,1004.4
2019-05-18T07:48:57.024Z,1004.5
2019-05-18T07:49:37.644Z,1004.51
2019-05-18T07:50:18.233Z,1004.45
2019-05-18T07:50:58.876Z,1004.45
2019-05-18T07:51:39.444Z,1004.47
2019-05-18T07:52:20.104Z,1004.44
2019-05-18T07:53:00.717Z,1004.46
2019-05-18T07:53:41.313Z,1004.45
2019-05-18T07:54:21.897Z,1004.43
2019-05-18T07:55:02.466Z,1004.37
2019-05-18T07:55:43.109Z,1004.37
2019-05-18T07:56:23.699Z,1004.34
2019-05-18T07:57:04.487Z,1004.38
2019-05-18T07:57:45.050Z,1004.3
2019-05-18T07:58:25.668Z,1004.3
2019-05-18T07:59:06.234Z,1004.28
2019-05-18T07:59:46.924Z,1004.29
2019-05-18T08:00:27.585Z,1004.27
2019-05-18T08:01:08.287Z,1004.22
2019-05-18T08:01:48.857Z,1004.25
2019-05-18T08:02:29.496Z,1004.27
2019-05-18T08:03:10.082Z,1004.24
2019-05-18T08:03:50.692Z,1004.26
2019-05-18T08:04:31.327Z,1004.23
2019-05-18T08:05:12.002Z,1004.2
2019-05-18T08:05:52.554Z,1004.2
2019-05-18T08:06:33.141Z,1004.15
2019-05-18T08:07:13.742Z,1004.22
2019-05-18T08:07:54.350Z,1004.19
2019-05-18T08:08:34.938Z,1004.18
2019-05-18T08:09:15.539Z,1004.2
2019-05-18T08:09:56.161Z,1004.24
2019-05-18T08:10:36.762Z,1004.17
2019-05-18T08:11:17.386Z,1004.15
2019-05-18T08:11:58.086Z,1004.17
2019-05-18T08:12:38.733Z,1004.15
2019-05-18T08:13:19.347Z,1004.14
2019-05-18T08:13:59.967Z,1004.14
2019-05-18T08:14:40.573Z,1004.17
2019-05-18T08:15:21.319Z,1004.12
2019-05-18T08:16:02.048Z,1004.13
2019-05-18T08:16:42.826Z,1004.09
2019-05-18T08:17:23.479Z,1004.13
2019-05-18T08:18:04.131Z,1004.14
2019-05-18T08:18:44.756Z,1004.08
2019-05-18T08:19:25.790Z,1004.14
2019-05-18T08:20:07.352Z,1004.1
2019-05-18T08:20:47.939Z,1004.12
2019-05-18T08:21:29.033Z,1004.13
2019-05-18T08:22:10.519Z,1004.12